Terminal Aerodrome Forecast
Issued by NWS Cleveland, OH

Home | Current Version | Previous Version | Graphics & Text | Print | Product List | Glossary Off
Versions: 1 2 3 4 5 6 7 8 9 10 11 12 13 14 15 16 17

000
FTUS41 KCLE 171936 AAA
TAFCAK
TAF AMD
KCAK 171936Z 1720/1818 18008KT P6SM BKN028 OVC100
     FM172100 20008KT 5SM -SN OVC015
      TEMPO 1722/1801 1SM -SN OVC007
     FM180100 23008KT P6SM VCSH OVC007
     FM180500 25010KT P6SM OVC015
     FM181200 28007KT P6SM BKN030=

USA.gov is the U.S. government's official web portal to all federal, state and local government web resources and services.